Time;durP1;ratioP1;P1;durP2;ratioP2;P2;SDS_P1;SDS_P2;PMS_P1;PMS_P2;Temp;Humidity;BMP_temperature;BMP_pressure;BME280_temperature;BME280_humidity;BME280_pressure;Samples;Min_cycle;Max_cycle;Signal;HPM_P1;HPM_P2
2023/05/07 00:00:18;;;;;;;32.85;21.63;;;12.10;99.90;;;;;;5096157;28;20036;-72
2023/05/07 00:02:45;;;;;;;33.55;21.23;;;12.10;99.90;;;;;;5095435;28;20040;-72
2023/05/07 00:05:11;;;;;;;32.58;18.92;;;12.10;99.90;;;;;;5096078;28;20446;-72
2023/05/07 00:07:37;;;;;;;28.55;20.10;;;12.10;99.90;;;;;;5094699;28;20040;-73
2023/05/07 00:10:04;;;;;;;30.52;21.40;;;12.00;99.90;;;;;;5095010;28;20483;-72
2023/05/07 00:12:33;;;;;;;33.58;21.00;;;12.10;99.90;;;;;;5094238;28;20044;-73
2023/05/07 00:15:00;;;;;;;28.90;19.90;;;12.10;99.90;;;;;;5094542;28;20396;-72
2023/05/07 00:17:25;;;;;;;32.38;20.35;;;12.00;99.90;;;;;;5094113;28;20489;-73
2023/05/07 00:19:51;;;;;;;33.08;20.10;;;12.00;99.90;;;;;;5094338;28;20083;-73
2023/05/07 00:22:17;;;;;;;32.13;19.60;;;12.00;99.90;;;;;;5093891;28;20416;-72
2023/05/07 00:24:42;;;;;;;30.98;20.77;;;12.00;99.90;;;;;;5094154;28;20040;-72
2023/05/07 00:27:08;;;;;;;31.42;19.58;;;11.90;99.90;;;;;;5093830;28;20044;-72
2023/05/07 00:29:34;;;;;;;30.30;19.05;;;11.90;99.90;;;;;;5094019;28;20106;-73
2023/05/07 00:31:59;;;;;;;30.25;18.92;;;11.90;99.90;;;;;;5094457;28;20058;-72
2023/05/07 00:34:25;;;;;;;28.95;20.10;;;11.90;99.90;;;;;;5094121;28;20415;-72
2023/05/07 00:36:50;;;;;;;35.30;20.60;;;11.90;99.90;;;;;;5095610;28;20036;-72
2023/05/07 00:39:16;;;;;;;35.53;20.58;;;11.80;99.90;;;;;;5098022;28;20043;-72
2023/05/07 00:41:41;;;;;;;30.63;19.17;;;11.90;99.90;;;;;;5097833;28;20036;-72
2023/05/07 00:44:07;;;;;;;29.02;19.83;;;11.90;99.90;;;;;;5098144;28;20044;-72
2023/05/07 00:46:33;;;;;;;30.25;19.73;;;11.80;99.90;;;;;;5097364;28;20117;-72
2023/05/07 00:49:00;;;;;;;34.90;21.35;;;11.90;99.90;;;;;;5097414;28;20043;-73
2023/05/07 00:51:27;;;;;;;32.65;19.73;;;11.80;99.90;;;;;;5097389;28;20072;-72
2023/05/07 00:53:53;;;;;;;32.30;20.83;;;11.80;99.90;;;;;;5097717;28;20123;-72
2023/05/07 00:56:21;;;;;;;33.60;20.88;;;11.80;99.90;;;;;;5096928;28;20119;-73
2023/05/07 00:58:47;;;;;;;30.80;21.13;;;11.80;99.90;;;;;;5097711;28;20040;-72
2023/05/07 01:01:12;;;;;;;32.30;20.63;;;11.80;99.90;;;;;;5098854;28;20046;-73
2023/05/07 01:03:38;;;;;;;31.55;21.17;;;11.70;99.90;;;;;;5097801;28;20040;-72
2023/05/07 01:06:06;;;;;;;34.35;21.70;;;11.80;99.90;;;;;;5098767;28;20060;-72
2023/05/07 01:08:32;;;;;;;32.83;20.65;;;11.80;99.90;;;;;;5098070;28;20044;-72
2023/05/07 01:10:59;;;;;;;33.10;22.15;;;11.70;99.90;;;;;;5097479;28;20048;-72
2023/05/07 01:13:25;;;;;;;37.67;21.75;;;11.70;99.90;;;;;;5096637;28;20043;-72
2023/05/07 01:15:50;;;;;;;35.25;22.98;;;11.70;99.90;;;;;;5096931;28;20514;-72
2023/05/07 01:18:16;;;;;;;33.10;21.55;;;11.70;99.90;;;;;;5096867;28;20032;-72
2023/05/07 01:20:42;;;;;;;32.97;21.58;;;11.70;99.90;;;;;;5096619;28;20123;-72
2023/05/07 01:23:09;;;;;;;32.38;21.48;;;11.70;99.90;;;;;;5096008;28;20081;-73
2023/05/07 01:25:35;;;;;;;35.38;20.83;;;11.70;99.90;;;;;;5096449;28;20047;-72
2023/05/07 01:28:01;;;;;;;33.67;21.00;;;11.70;99.90;;;;;;5096785;28;20040;-72
2023/05/07 01:30:27;;;;;;;33.90;21.40;;;11.70;99.90;;;;;;5095986;28;20051;-72
2023/05/07 01:33:10;;;;;;;35.53;22.15;;;11.70;99.90;;;;;;5096328;28;20028;-72
2023/05/07 01:35:40;;;;;;;31.40;22.55;;;11.70;99.90;;;;;;5096367;28;20122;-72
2023/05/07 01:38:06;;;;;;;36.63;22.55;;;11.60;99.90;;;;;;5096267;28;20055;-72
2023/05/07 01:40:33;;;;;;;34.00;22.88;;;11.60;99.90;;;;;;5095500;28;20044;-72
2023/05/07 01:43:00;;;;;;;33.03;23.52;;;11.60;99.90;;;;;;5096148;28;20040;-72
2023/05/07 01:45:26;;;;;;;39.67;24.05;;;11.60;99.90;;;;;;5096966;28;20492;-72
2023/05/07 01:47:53;;;;;;;37.63;22.92;;;11.50;99.90;;;;;;5094344;28;20071;-72
2023/05/07 01:50:20;;;;;;;36.75;23.63;;;11.50;99.90;;;;;;5095369;28;20036;-72
2023/05/07 01:52:46;;;;;;;37.60;24.92;;;11.60;99.90;;;;;;5095190;28;20035;-72
2023/05/07 01:55:12;;;;;;;37.67;21.77;;;11.60;99.90;;;;;;5095785;28;20066;-72
2023/05/07 01:57:37;;;;;;;37.22;24.38;;;11.50;99.90;;;;;;5078783;28;20036;-72
2023/05/07 02:00:04;;;;;;;40.70;25.98;;;11.50;99.90;;;;;;5096888;28;20526;-72
2023/05/07 02:02:30;;;;;;;34.75;22.02;;;11.50;99.90;;;;;;5097219;28;20044;-72
2023/05/07 02:04:57;;;;;;;39.72;24.13;;;11.50;99.90;;;;;;5094887;28;20043;-72
2023/05/07 02:07:22;;;;;;;41.33;26.05;;;11.50;99.90;;;;;;5094934;28;20503;-72
2023/05/07 02:09:48;;;;;;;41.25;24.10;;;11.40;99.90;;;;;;5095269;28;20071;-72
2023/05/07 02:12:13;;;;;;;37.00;22.98;;;11.40;99.90;;;;;;5095219;28;20044;-72
2023/05/07 02:14:39;;;;;;;44.17;23.60;;;11.40;99.90;;;;;;5096421;28;20036;-72
2023/05/07 02:17:04;;;;;;;35.95;23.40;;;11.40;99.90;;;;;;5095614;28;20097;-72
2023/05/07 02:19:30;;;;;;;36.35;24.77;;;11.40;99.90;;;;;;5095121;28;20044;-72
2023/05/07 02:21:56;;;;;;;44.88;24.35;;;11.30;99.90;;;;;;5095372;28;20050;-72
2023/05/07 02:24:21;;;;;;;38.75;24.58;;;11.40;99.90;;;;;;5094755;28;20126;-72
2023/05/07 02:26:47;;;;;;;34.97;22.98;;;11.40;99.90;;;;;;5095461;28;20040;-72
2023/05/07 02:29:12;;;;;;;41.10;25.67;;;11.40;99.90;;;;;;5094793;28;20667;-72
2023/05/07 02:31:38;;;;;;;35.65;22.77;;;11.30;99.90;;;;;;5094721;28;20040;-72
2023/05/07 02:34:03;;;;;;;39.33;23.30;;;11.30;99.90;;;;;;5095914;28;20040;-72
2023/05/07 02:36:29;;;;;;;41.70;24.80;;;11.40;99.90;;;;;;5095389;28;20063;-72
2023/05/07 02:38:55;;;;;;;40.40;25.33;;;11.40;99.90;;;;;;5096488;28;20387;-72
2023/05/07 02:41:20;;;;;;;44.92;25.10;;;11.30;99.90;;;;;;5095905;28;20555;-72
2023/05/07 02:43:46;;;;;;;44.90;25.65;;;11.30;99.90;;;;;;5096237;28;20040;-72
2023/05/07 02:46:12;;;;;;;38.17;23.42;;;11.30;99.90;;;;;;5095975;28;20062;-72
2023/05/07 02:48:38;;;;;;;40.15;26.52;;;11.30;99.90;;;;;;5094785;28;20074;-72
2023/05/07 02:51:05;;;;;;;43.83;25.58;;;11.30;99.90;;;;;;5094931;28;20419;-72
2023/05/07 02:53:30;;;;;;;37.30;23.80;;;11.30;99.90;;;;;;5077137;28;20071;-72
2023/05/07 02:55:58;;;;;;;36.25;24.27;;;11.20;99.90;;;;;;5094636;28;20043;-72
2023/05/07 02:58:23;;;;;;;41.53;24.40;;;11.30;99.90;;;;;;5094180;28;20435;-72
2023/05/07 03:00:50;;;;;;;39.80;24.45;;;11.30;99.90;;;;;;5095752;28;20047;-72
2023/05/07 03:03:15;;;;;;;39.25;25.48;;;11.30;99.90;;;;;;5095835;28;20048;-72
2023/05/07 03:05:41;;;;;;;38.88;25.08;;;11.30;99.90;;;;;;5095140;28;20039;-72
2023/05/07 03:08:07;;;;;;;44.15;24.55;;;11.20;99.90;;;;;;5095522;28;20036;-72
2023/05/07 03:10:33;;;;;;;45.00;26.60;;;11.20;99.90;;;;;;5094393;28;20122;-72
2023/05/07 03:12:59;;;;;;;47.30;26.80;;;11.20;99.90;;;;;;5095115;28;20082;-72
2023/05/07 03:15:24;;;;;;;43.58;24.23;;;11.20;99.90;;;;;;5095796;28;20089;-72
2023/05/07 03:17:50;;;;;;;39.67;25.52;;;11.20;99.90;;;;;;5094125;28;20495;-72
2023/05/07 03:20:15;;;;;;;41.47;25.17;;;11.20;99.90;;;;;;5094180;28;20040;-72
2023/05/07 03:22:41;;;;;;;42.63;24.10;;;11.10;99.90;;;;;;5093971;28;20036;-72
2023/05/07 03:25:08;;;;;;;42.80;26.33;;;11.20;99.90;;;;;;5094144;28;20040;-72
2023/05/07 03:27:34;;;;;;;41.88;25.80;;;11.10;99.90;;;;;;5094403;28;20044;-72
2023/05/07 03:30:00;;;;;;;40.58;26.02;;;11.10;99.90;;;;;;5095165;28;20041;-72
2023/05/07 03:32:26;;;;;;;46.63;26.75;;;11.10;99.90;;;;;;5093996;28;20044;-72
2023/05/07 03:34:51;;;;;;;42.28;24.88;;;11.10;99.90;;;;;;5094099;28;20039;-72
2023/05/07 03:37:17;;;;;;;41.35;25.55;;;11.10;99.90;;;;;;5093896;28;20036;-72
2023/05/07 03:39:43;;;;;;;43.42;25.27;;;11.10;99.90;;;;;;5094380;28;20491;-72
2023/05/07 03:42:08;;;;;;;39.10;25.65;;;11.00;99.90;;;;;;5094499;28;20035;-72
2023/05/07 03:44:36;;;;;;;41.60;25.20;;;11.00;99.90;;;;;;5094306;28;20070;-72
2023/05/07 03:47:02;;;;;;;41.10;24.77;;;11.00;99.90;;;;;;5094895;28;20085;-72
2023/05/07 03:49:27;;;;;;;38.58;24.48;;;11.00;99.90;;;;;;5093382;28;20135;-72
2023/05/07 03:51:53;;;;;;;42.53;25.83;;;10.90;99.90;;;;;;5094110;28;20076;-72
2023/05/07 03:54:18;;;;;;;39.28;25.13;;;10.90;99.90;;;;;;5094394;28;20456;-72
2023/05/07 03:56:44;;;;;;;39.17;24.70;;;10.90;99.90;;;;;;5093692;28;20032;-72
2023/05/07 03:59:09;;;;;;;42.03;25.17;;;10.90;99.90;;;;;;5095688;28;20395;-72
2023/05/07 04:01:35;;;;;;;41.35;24.50;;;10.90;99.90;;;;;;5095510;28;20166;-72
2023/05/07 04:04:01;;;;;;;39.90;25.42;;;10.90;99.90;;;;;;5096024;28;20495;-72
2023/05/07 04:06:27;;;;;;;39.90;26.33;;;10.90;99.90;;;;;;5113781;28;20035;-72
2023/05/07 04:08:53;;;;;;;40.85;23.65;;;10.90;99.90;;;;;;5114034;28;20043;-72
2023/05/07 04:11:18;;;;;;;42.67;25.40;;;10.80;99.90;;;;;;5115735;28;20043;-72
2023/05/07 04:13:44;;;;;;;38.40;25.83;;;10.90;99.90;;;;;;5119407;28;20281;-72
2023/05/07 04:16:09;;;;;;;44.55;24.92;;;10.90;99.90;;;;;;5118628;28;20044;-72
2023/05/07 04:18:35;;;;;;;41.08;24.20;;;10.90;99.90;;;;;;5118458;28;20040;-72
2023/05/07 04:21:01;;;;;;;44.22;27.10;;;10.90;99.90;;;;;;5118476;28;20039;-72
2023/05/07 04:23:26;;;;;;;43.88;24.35;;;10.90;99.90;;;;;;5118534;28;20055;-72
2023/05/07 04:25:52;;;;;;;41.75;24.60;;;10.80;99.90;;;;;;5118209;28;20046;-72
2023/05/07 04:28:18;;;;;;;39.58;22.27;;;10.80;99.90;;;;;;5118552;28;20035;-72
2023/05/07 04:30:43;;;;;;;42.03;23.30;;;10.90;99.90;;;;;;5118212;28;20079;-72
2023/05/07 04:33:10;;;;;;;36.55;22.77;;;10.80;99.90;;;;;;5117918;28;20487;-72
2023/05/07 04:35:36;;;;;;;35.25;23.70;;;10.80;99.90;;;;;;5100802;28;20589;-72
2023/05/07 04:38:01;;;;;;;35.97;23.25;;;10.80;99.90;;;;;;5119190;28;20075;-72
2023/05/07 04:40:27;;;;;;;34.83;22.42;;;10.80;99.90;;;;;;5119291;28;20036;-72
2023/05/07 04:42:52;;;;;;;36.88;22.08;;;10.70;99.90;;;;;;5118375;28;20040;-72
2023/05/07 04:45:18;;;;;;;36.58;23.08;;;10.80;99.90;;;;;;5117877;28;20040;-72
2023/05/07 04:47:44;;;;;;;37.40;24.10;;;10.80;99.90;;;;;;5118049;28;20053;-72
2023/05/07 04:50:10;;;;;;;32.75;22.48;;;10.80;99.90;;;;;;5117619;28;20108;-72
2023/05/07 04:52:36;;;;;;;37.13;21.95;;;10.80;99.90;;;;;;5120047;28;20092;-72
2023/05/07 04:55:02;;;;;;;37.28;22.67;;;10.80;99.90;;;;;;5114671;28;20410;-72
2023/05/07 04:57:27;;;;;;;35.75;22.63;;;10.70;99.90;;;;;;5114098;28;20032;-71
2023/05/07 04:59:54;;;;;;;34.10;21.63;;;10.70;99.90;;;;;;5115552;28;20088;-72
2023/05/07 05:02:19;;;;;;;37.00;22.15;;;10.80;99.90;;;;;;5115318;28;20040;-71
2023/05/07 05:04:45;;;;;;;36.95;23.38;;;10.70;99.90;;;;;;5114038;28;20038;-72
2023/05/07 05:07:10;;;;;;;33.10;22.50;;;10.80;99.90;;;;;;5113807;28;20432;-71
2023/05/07 05:09:36;;;;;;;38.67;24.35;;;10.80;99.90;;;;;;5115175;28;20075;-72
2023/05/07 05:12:02;;;;;;;37.53;21.75;;;10.80;99.90;;;;;;5115214;28;20031;-72
2023/05/07 05:14:27;;;;;;;34.30;21.17;;;10.80;99.90;;;;;;5113886;28;20044;-71
2023/05/07 05:16:53;;;;;;;35.40;22.38;;;10.80;99.90;;;;;;5113846;28;20036;-72
2023/05/07 05:19:18;;;;;;;31.65;20.05;;;10.80;99.90;;;;;;5113759;28;20070;-72
2023/05/07 05:21:44;;;;;;;31.15;19.50;;;10.80;99.90;;;;;;5113428;28;20039;-72
2023/05/07 05:24:10;;;;;;;34.33;21.75;;;10.80;99.90;;;;;;5113660;28;20120;-71
2023/05/07 05:26:35;;;;;;;32.60;21.52;;;10.80;99.90;;;;;;5113734;28;20098;-72
2023/05/07 05:29:01;;;;;;;37.65;23.50;;;10.70;99.90;;;;;;5114827;28;20073;-72
2023/05/07 05:31:26;;;;;;;34.92;22.13;;;10.80;99.90;;;;;;5113501;28;20080;-71
2023/05/07 05:33:52;;;;;;;34.47;21.10;;;10.80;99.90;;;;;;5113429;28;20036;-72
2023/05/07 05:36:17;;;;;;;35.60;21.23;;;10.80;99.90;;;;;;5113379;28;20084;-71
2023/05/07 05:38:44;;;;;;;33.78;21.17;;;10.80;99.90;;;;;;5096310;28;20073;-72
2023/05/07 05:41:10;;;;;;;34.95;21.45;;;10.80;99.90;;;;;;5113276;28;20040;-73
2023/05/07 05:43:35;;;;;;;37.90;21.48;;;10.80;99.90;;;;;;5113350;28;20058;-71
2023/05/07 05:46:01;;;;;;;36.25;23.35;;;10.80;99.90;;;;;;5114437;28;20028;-72
2023/05/07 05:48:28;;;;;;;31.98;20.70;;;10.80;99.90;;;;;;5113014;28;20093;-72
2023/05/07 05:50:54;;;;;;;34.53;21.13;;;10.80;99.90;;;;;;5113078;28;20036;-70
2023/05/07 05:53:20;;;;;;;28.02;19.27;;;10.80;99.90;;;;;;5111925;28;20434;-72
2023/05/07 05:55:45;;;;;;;32.65;21.20;;;10.80;99.90;;;;;;5094922;28;20044;-71
2023/05/07 05:58:11;;;;;;;37.53;21.23;;;10.90;99.90;;;;;;5113160;28;20047;-72
2023/05/07 06:00:36;;;;;;;34.55;21.42;;;10.80;99.90;;;;;;5111910;28;20032;-71
2023/05/07 06:03:02;;;;;;;37.47;20.60;;;10.80;99.90;;;;;;5112984;28;20459;-70
2023/05/07 06:05:28;;;;;;;32.92;20.33;;;10.90;99.90;;;;;;5113173;28;20122;-72
2023/05/07 06:07:53;;;;;;;31.60;20.00;;;10.90;99.90;;;;;;5112926;28;20452;-72
2023/05/07 06:10:19;;;;;;;32.83;21.33;;;10.90;99.90;;;;;;5111713;28;20039;-72
2023/05/07 06:12:44;;;;;;;29.55;18.85;;;10.90;99.90;;;;;;5111878;28;20043;-72
2023/05/07 06:15:10;;;;;;;32.05;19.75;;;10.90;99.90;;;;;;5111621;28;20498;-72
2023/05/07 06:17:36;;;;;;;32.50;19.80;;;10.90;99.90;;;;;;5111378;28;20138;-72
2023/05/07 06:20:01;;;;;;;32.25;19.13;;;10.90;99.90;;;;;;5111623;28;20031;-72
2023/05/07 06:22:27;;;;;;;32.80;20.70;;;10.80;99.90;;;;;;5111504;28;20039;-72
2023/05/07 06:24:53;;;;;;;31.50;18.83;;;10.90;99.90;;;;;;5111765;28;20042;-72
2023/05/07 06:27:18;;;;;;;28.15;18.83;;;10.90;99.90;;;;;;5111234;28;20039;-72
2023/05/07 06:29:44;;;;;;;27.80;18.90;;;10.90;99.90;;;;;;5112761;28;20040;-72
2023/05/07 06:32:11;;;;;;;32.65;20.50;;;11.00;99.90;;;;;;5094367;28;20040;-72
2023/05/07 06:34:38;;;;;;;34.17;18.88;;;10.90;99.90;;;;;;5110500;28;20032;-72
2023/05/07 06:37:03;;;;;;;31.25;18.58;;;11.00;99.90;;;;;;5111417;28;20115;-72
2023/05/07 06:39:29;;;;;;;35.00;19.02;;;11.00;99.90;;;;;;5111356;28;20510;-72
2023/05/07 06:41:55;;;;;;;29.08;19.60;;;11.00;99.90;;;;;;5111215;28;20044;-72
2023/05/07 06:44:20;;;;;;;31.50;20.42;;;10.90;99.90;;;;;;5094271;28;20043;-72
2023/05/07 06:46:46;;;;;;;29.95;19.58;;;11.00;99.90;;;;;;5110925;28;20054;-73
2023/05/07 06:49:13;;;;;;;33.38;19.33;;;11.00;99.90;;;;;;5111026;28;20036;-72
2023/05/07 06:51:38;;;;;;;27.73;18.98;;;10.90;99.90;;;;;;5074392;28;1041425;-72
2023/05/07 06:54:04;;;;;;;27.60;18.13;;;11.00;99.90;;;;;;5111934;28;20044;-73
2023/05/07 06:56:30;;;;;;;29.70;19.40;;;11.00;99.90;;;;;;5111853;28;20036;-73
2023/05/07 06:58:56;;;;;;;28.77;19.70;;;11.00;99.90;;;;;;5111717;28;20134;-73
2023/05/07 07:01:22;;;;;;;28.23;17.80;;;11.00;99.90;;;;;;5094729;28;20122;-73
2023/05/07 07:03:47;;;;;;;33.47;20.58;;;11.10;99.90;;;;;;5111687;28;20031;-73
2023/05/07 07:06:13;;;;;;;30.20;18.30;;;11.10;99.90;;;;;;5111569;28;20118;-72
2023/05/07 07:08:38;;;;;;;29.08;19.02;;;11.20;99.90;;;;;;5111455;28;20036;-72
2023/05/07 07:11:05;;;;;;;30.20;19.73;;;11.20;99.90;;;;;;5094852;28;20047;-72
2023/05/07 07:13:31;;;;;;;32.00;20.23;;;11.20;99.90;;;;;;5091092;28;20479;-72
2023/05/07 07:15:56;;;;;;;33.47;19.10;;;11.20;99.90;;;;;;5091076;28;20119;-72
2023/05/07 07:18:22;;;;;;;30.02;19.67;;;11.20;99.90;;;;;;5091221;28;20036;-72
2023/05/07 07:20:48;;;;;;;28.50;20.15;;;11.20;99.90;;;;;;5074206;28;20079;-73
2023/05/07 07:23:14;;;;;;;34.55;20.48;;;11.20;99.90;;;;;;5091252;28;20124;-72
2023/05/07 07:25:39;;;;;;;30.13;20.38;;;11.20;99.90;;;;;;5090901;28;20044;-72
2023/05/07 07:28:05;;;;;;;32.60;19.77;;;11.30;99.90;;;;;;5090803;28;20399;-73
2023/05/07 07:30:31;;;;;;;33.42;20.50;;;11.20;99.90;;;;;;5090820;28;20040;-72
2023/05/07 07:33:02;;;;;;;34.28;20.92;;;11.30;99.90;;;;;;5090784;28;20392;-72
2023/05/07 07:35:31;;;;;;;33.83;21.05;;;11.30;99.90;;;;;;5091074;28;20055;-71
2023/05/07 07:37:56;;;;;;;34.25;21.13;;;11.40;99.90;;;;;;5073750;28;20515;-72
2023/05/07 07:40:22;;;;;;;32.55;20.67;;;11.40;99.90;;;;;;5092149;28;20119;-71
2023/05/07 07:42:48;;;;;;;31.05;19.85;;;11.40;99.90;;;;;;5091829;28;20040;-74
2023/05/07 07:45:13;;;;;;;34.58;21.35;;;11.40;99.90;;;;;;5091852;28;20044;-72
2023/05/07 07:47:40;;;;;;;29.40;18.52;;;11.40;99.90;;;;;;5090511;28;20633;-72
2023/05/07 07:50:06;;;;;;;28.98;19.25;;;11.50;99.90;;;;;;5097254;28;20047;-72
2023/05/07 07:52:32;;;;;;;33.10;20.15;;;11.40;99.90;;;;;;5090481;28;20028;-74
2023/05/07 07:54:58;;;;;;;30.20;18.52;;;11.40;99.90;;;;;;5091699;28;20085;-73
2023/05/07 07:57:23;;;;;;;32.90;20.25;;;11.50;99.90;;;;;;5090662;28;20043;-73
2023/05/07 07:59:50;;;;;;;30.73;20.10;;;11.50;99.90;;;;;;5090158;28;20046;-70
2023/05/07 08:02:16;;;;;;;31.88;20.15;;;11.60;99.90;;;;;;5109578;28;20090;-74
2023/05/07 08:04:43;;;;;;;32.40;20.75;;;11.70;99.90;;;;;;5107042;28;20115;-74
2023/05/07 08:07:09;;;;;;;34.47;20.50;;;11.70;99.90;;;;;;5081615;28;20411;-73
2023/05/07 08:09:35;;;;;;;34.63;18.98;;;11.80;99.90;;;;;;5100935;28;20061;-73
2023/05/07 08:12:01;;;;;;;28.45;18.65;;;11.90;99.90;;;;;;5107322;28;20460;-73
2023/05/07 08:14:28;;;;;;;29.88;19.48;;;11.90;99.90;;;;;;5099125;28;20031;-74
2023/05/07 08:16:54;;;;;;;29.33;18.90;;;11.90;99.90;;;;;;5110246;28;20453;-73
2023/05/07 08:19:20;;;;;;;30.33;18.35;;;11.90;99.90;;;;;;5103778;28;20043;-73
2023/05/07 08:21:47;;;;;;;30.27;18.15;;;12.00;99.90;;;;;;5104531;28;20071;-73
2023/05/07 08:24:13;;;;;;;29.73;18.70;;;12.10;99.90;;;;;;5111619;28;20451;-73
2023/05/07 08:26:39;;;;;;;29.70;18.58;;;12.10;99.90;;;;;;5110026;28;20559;-73
2023/05/07 08:29:05;;;;;;;29.05;19.73;;;12.20;99.90;;;;;;5110213;28;20031;-72
2023/05/07 08:31:31;;;;;;;29.80;19.10;;;12.30;99.90;;;;;;5111725;28;20080;-73
2023/05/07 08:33:57;;;;;;;25.73;18.40;;;12.30;99.90;;;;;;5110336;28;20038;-73
2023/05/07 08:36:23;;;;;;;30.63;18.52;;;12.20;99.90;;;;;;5103424;28;20032;-73
2023/05/07 08:38:49;;;;;;;33.10;20.00;;;12.30;99.90;;;;;;5089774;28;20407;-73
2023/05/07 08:41:15;;;;;;;30.40;18.33;;;12.30;99.90;;;;;;5095634;28;20028;-72
2023/05/07 08:43:41;;;;;;;29.30;18.73;;;12.30;99.90;;;;;;5111709;28;20043;-73
2023/05/07 08:46:09;;;;;;;30.48;19.73;;;12.40;99.90;;;;;;5111299;28;20117;-72
2023/05/07 08:48:35;;;;;;;27.55;20.38;;;12.30;99.90;;;;;;5111458;28;20046;-72
2023/05/07 08:51:01;;;;;;;30.88;19.52;;;12.30;99.90;;;;;;5111324;28;20043;-72
2023/05/07 08:53:26;;;;;;;27.75;18.02;;;12.30;99.90;;;;;;5110083;28;20111;-71
2023/05/07 08:55:53;;;;;;;31.08;19.75;;;12.40;99.90;;;;;;5111215;28;20047;-73
2023/05/07 08:58:19;;;;;;;31.83;20.20;;;12.40;99.90;;;;;;5114287;28;20115;-72
2023/05/07 09:00:45;;;;;;;29.73;20.02;;;12.50;99.90;;;;;;5115369;28;20067;-74
2023/05/07 09:03:14;;;;;;;30.63;19.15;;;12.50;99.90;;;;;;5114017;28;20049;-75
2023/05/07 09:05:39;;;;;;;28.48;19.63;;;12.60;99.90;;;;;;5113741;28;20510;-74
2023/05/07 09:08:07;;;;;;;30.20;19.80;;;12.60;99.90;;;;;;5113418;28;20283;-74
2023/05/07 09:10:34;;;;;;;33.05;20.60;;;12.70;99.90;;;;;;5106619;28;20431;-73
2023/05/07 09:12:59;;;;;;;29.23;18.67;;;12.70;99.90;;;;;;5094610;28;20048;-73
2023/05/07 09:15:26;;;;;;;31.20;18.70;;;12.70;99.90;;;;;;5113876;28;20167;-73
2023/05/07 09:17:52;;;;;;;30.13;19.00;;;12.80;99.90;;;;;;5114862;28;20032;-72
2023/05/07 09:20:18;;;;;;;31.33;21.27;;;12.80;99.90;;;;;;5114721;28;20032;-72
2023/05/07 09:22:44;;;;;;;31.65;20.33;;;12.90;99.90;;;;;;5114624;28;20056;-73
2023/05/07 09:25:10;;;;;;;33.05;20.33;;;12.90;99.90;;;;;;5104638;28;20056;-73
2023/05/07 09:27:35;;;;;;;33.25;19.02;;;13.00;99.90;;;;;;5107374;28;20514;-73
2023/05/07 09:30:08;;;;;;;28.83;17.95;;;13.10;99.90;;;;;;5113335;28;20044;-73
2023/05/07 09:32:37;;;;;;;29.60;19.85;;;13.10;99.90;;;;;;5114618;28;20042;-73
2023/05/07 09:35:03;;;;;;;27.95;18.45;;;13.10;99.90;;;;;;5113195;28;20042;-74
2023/05/07 09:37:31;;;;;;;30.00;18.15;;;13.10;99.90;;;;;;5106733;28;20028;-74
2023/05/07 09:39:56;;;;;;;26.75;17.80;;;13.10;99.90;;;;;;5103333;28;20450;-73
2023/05/07 09:42:26;;;;;;;27.02;18.25;;;13.10;99.90;;;;;;5104365;28;20047;-74
2023/05/07 09:44:52;;;;;;;28.35;18.67;;;13.00;99.90;;;;;;5102733;28;20408;-73
2023/05/07 09:47:24;;;;;;;26.10;17.25;;;13.10;99.90;;;;;;5103959;28;20111;-74
2023/05/07 09:49:53;;;;;;;30.25;18.77;;;13.10;99.90;;;;;;5104769;28;20143;-72
2023/05/07 09:52:20;;;;;;;28.98;16.45;;;13.20;99.90;;;;;;5104392;28;20043;-74
2023/05/07 09:54:47;;;;;;;30.45;17.13;;;13.30;99.90;;;;;;5102812;28;20036;-74
2023/05/07 09:57:14;;;;;;;26.13;16.60;;;13.40;99.90;;;;;;5104103;28;20040;-74
2023/05/07 09:59:43;;;;;;;25.05;17.23;;;13.50;99.90;;;;;;5102724;28;20044;-74
2023/05/07 10:02:10;;;;;;;27.05;17.95;;;13.70;99.90;;;;;;5105523;28;20415;-74
2023/05/07 10:04:36;;;;;;;25.10;16.83;;;13.70;99.90;;;;;;5101803;28;20047;-74
2023/05/07 10:07:04;;;;;;;27.63;18.42;;;13.80;99.90;;;;;;5104138;28;20040;-74
2023/05/07 10:09:30;;;;;;;24.83;16.88;;;13.80;99.90;;;;;;5105568;28;20095;-74
2023/05/07 10:11:56;;;;;;;25.83;17.50;;;14.10;99.90;;;;;;5114305;28;20039;-76
2023/05/07 10:14:23;;;;;;;24.20;15.73;;;14.10;99.90;;;;;;5112659;28;20028;-74
2023/05/07 10:16:49;;;;;;;27.10;17.05;;;14.20;99.90;;;;;;5097711;28;20047;-74
2023/05/07 10:19:15;;;;;;;24.25;16.23;;;14.20;99.90;;;;;;5112667;28;20043;-73
2023/05/07 10:21:55;;;;;;;27.10;17.08;;;14.10;99.90;;;;;;5113907;28;20510;-74
2023/05/07 10:24:31;;;;;;;21.45;14.90;;;14.10;99.90;;;;;;5113707;28;20039;-74
2023/05/07 10:26:58;;;;;;;22.33;15.18;;;14.20;99.90;;;;;;5112182;28;20034;-73
2023/05/07 10:29:42;;;;;;;22.55;16.25;;;14.20;99.90;;;;;;5113363;28;20472;-75
2023/05/07 10:32:27;;;;;;;25.45;16.50;;;14.20;99.90;;;;;;5108007;28;20085;-74
2023/05/07 10:34:56;;;;;;;27.63;17.13;;;14.20;99.90;;;;;;5104820;28;20043;-76
2023/05/07 10:37:22;;;;;;;21.45;16.08;;;14.30;99.90;;;;;;5112002;28;20120;-75
2023/05/07 10:39:47;;;;;;;21.48;16.02;;;14.30;99.90;;;;;;5112336;28;20372;-75
2023/05/07 10:42:14;;;;;;;24.17;15.48;;;14.40;99.90;;;;;;5111734;28;20046;-74
2023/05/07 10:44:40;;;;;;;19.75;14.77;;;14.40;99.90;;;;;;5113173;28;20545;-74
2023/05/07 10:47:06;;;;;;;21.83;15.48;;;14.40;99.90;;;;;;5111787;28;20075;-74
2023/05/07 10:49:31;;;;;;;23.77;17.00;;;14.40;99.90;;;;;;5094725;28;20044;-73
2023/05/07 10:52:17;;;;;;;21.02;15.10;;;14.50;99.90;;;;;;5112934;28;20036;-73
2023/05/07 10:54:44;;;;;;;22.17;15.77;;;14.60;99.90;;;;;;5082613;28;20032;-76
2023/05/07 10:57:32;;;;;;;19.33;14.93;;;14.60;99.90;;;;;;5112052;28;20131;-74
2023/05/07 10:59:58;;;;;;;24.65;16.85;;;14.60;99.90;;;;;;5100573;28;20130;-75
2023/05/07 11:02:59;;;;;;;19.10;14.80;;;14.70;99.90;;;;;;5112969;28;20115;-73
2023/05/07 11:05:26;;;;;;;20.25;14.35;;;14.70;99.90;;;;;;5111380;28;20047;-73
2023/05/07 11:07:56;;;;;;;20.73;14.35;;;14.90;99.90;;;;;;5112987;28;20044;-74
2023/05/07 11:10:22;;;;;;;21.60;15.57;;;14.90;99.90;;;;;;5111401;28;20487;-73
2023/05/07 11:12:50;;;;;;;19.90;14.02;;;15.00;99.90;;;;;;5094747;28;20035;-73
2023/05/07 11:15:38;;;;;;;19.67;14.93;;;15.00;99.90;;;;;;5111468;28;20047;-74
2023/05/07 11:18:04;;;;;;;22.20;14.85;;;15.20;99.90;;;;;;5111680;28;20043;-73
2023/05/07 11:20:50;;;;;;;18.05;14.13;;;15.20;99.90;;;;;;5112560;28;20035;-73
2023/05/07 11:23:35;;;;;;;22.77;15.40;;;15.20;99.90;;;;;;5111366;28;20496;-74
2023/05/07 11:26:05;;;;;;;19.98;15.23;;;15.20;99.90;;;;;;5112543;28;20054;-73
2023/05/07 11:28:36;;;;;;;19.13;14.35;;;15.20;99.90;;;;;;5111264;28;20036;-74
2023/05/07 11:31:02;;;;;;;27.80;19.25;;;15.30;99.90;;;;;;5111573;28;20040;-74
2023/05/07 11:33:29;;;;;;;22.38;14.85;;;15.20;99.90;;;;;;5112534;28;20063;-74
2023/05/07 11:35:55;;;;;;;19.20;14.43;;;15.30;99.90;;;;;;5112454;28;20102;-74
2023/05/07 11:38:21;;;;;;;19.15;14.98;;;15.40;99.90;;;;;;5111029;28;20494;-74
2023/05/07 11:40:51;;;;;;;17.85;13.60;;;15.40;99.90;;;;;;5111173;28;20047;-74
2023/05/07 11:43:17;;;;;;;18.98;14.95;;;15.50;99.90;;;;;;5111001;28;20043;-73
2023/05/07 11:45:44;;;;;;;20.70;15.18;;;15.50;99.90;;;;;;5111147;28;20430;-74
2023/05/07 11:48:09;;;;;;;20.45;15.57;;;15.50;99.90;;;;;;5110923;28;20081;-73
2023/05/07 11:50:35;;;;;;;16.77;12.73;;;15.50;99.90;;;;;;5112181;28;20079;-72
2023/05/07 11:53:07;;;;;;;18.75;13.85;;;15.70;99.90;;;;;;5110731;28;20036;-74
2023/05/07 11:55:33;;;;;;;17.73;14.07;;;15.70;99.90;;;;;;5105529;28;20046;-72
2023/05/07 11:57:59;;;;;;;20.17;14.35;;;15.80;99.90;;;;;;5094546;28;20031;-75
2023/05/07 12:00:24;;;;;;;18.50;13.57;;;15.80;99.90;;;;;;5090493;28;20078;-74
2023/05/07 12:02:50;;;;;;;19.13;14.10;;;15.80;99.90;;;;;;5090440;28;20424;-74
2023/05/07 12:05:16;;;;;;;23.80;15.65;;;15.90;99.90;;;;;;5090266;28;20048;-76
2023/05/07 12:07:42;;;;;;;19.52;15.10;;;15.90;99.90;;;;;;5090433;28;20047;-76
2023/05/07 12:10:07;;;;;;;19.80;13.82;;;15.90;99.90;;;;;;5090696;28;20040;-77
2023/05/07 12:12:41;;;;;;;17.58;14.15;;;15.90;99.90;;;;;;5091937;28;20032;-75
2023/05/07 12:15:07;;;;;;;20.00;14.48;;;15.90;99.90;;;;;;5091734;28;20047;-75
2023/05/07 12:17:33;;;;;;;19.02;13.57;;;16.00;99.90;;;;;;5090342;28;20162;-74
2023/05/07 12:19:59;;;;;;;19.60;13.52;;;16.00;99.90;;;;;;5090356;28;20127;-76
2023/05/07 12:22:25;;;;;;;17.17;13.85;;;16.00;99.90;;;;;;5090428;28;20119;-74